Mechanics Grove, Pennsylvania
Current Conditions -  °F | °C
As of 11:15 PM on Wednesday 22 Oct 2014 (Local Time) from KMQS Reporting Station
Broken Clouds Broken Clouds  
Wind Chill: 50°   Ceiling: 2900
Heat Index: 50°   Visibility: 10mi
Dew Point: 46°   Wind: 15mph
Humidity: 87%   Direction: 330°NNW
Pressure: 29.85"   Gusts: 20mph
Location:  39.8731°N, 76.1426°W
Report Text: KMQS 230315Z AUTO 33013G17KT 10SM FEW024 BKN029 BKN085 10/08 A2985 RMK AO2
Loading
Personal Weather Stations






























Interactive Weather Map
Tropical Storm Tracking
New forecast layout! Learn more

10-Day Weather Forecast

Advertisements
Track Severe Weather on mobile